sensor_id;sensor_type;location;lat;lon;timestamp;temperature;humidity
40952;DHT22;26682;51.660;19.338;2023-12-14T00:01:28;3.40;99.90
40952;DHT22;26682;51.660;19.338;2023-12-14T00:04:11;3.40;99.90
40952;DHT22;26682;51.660;19.338;2023-12-14T00:06:54;3.40;99.90
40952;DHT22;26682;51.660;19.338;2023-12-14T00:09:36;3.50;99.90
40952;DHT22;26682;51.660;19.338;2023-12-14T00:12:18;3.40;99.90
40952;DHT22;26682;51.660;19.338;2023-12-14T00:15:01;3.50;99.90
40952;DHT22;26682;51.660;19.338;2023-12-14T00:17:43;3.40;99.90
40952;DHT22;26682;51.660;19.338;2023-12-14T00:20:25;3.50;99.90
40952;DHT22;26682;51.660;19.338;2023-12-14T00:23:08;3.40;99.90
40952;DHT22;26682;51.660;19.338;2023-12-14T00:25:50;3.40;99.90
40952;DHT22;26682;51.660;19.338;2023-12-14T00:28:33;3.40;99.90
40952;DHT22;26682;51.660;19.338;2023-12-14T00:31:15;3.40;99.90
40952;DHT22;26682;51.660;19.338;2023-12-14T00:33:59;3.40;99.90
40952;DHT22;26682;51.660;19.338;2023-12-14T00:36:41;3.40;99.90
40952;DHT22;26682;51.660;19.338;2023-12-14T00:39:25;3.40;99.90
40952;DHT22;26682;51.660;19.338;2023-12-14T00:42:07;3.40;99.90
40952;DHT22;26682;51.660;19.338;2023-12-14T00:44:49;3.40;99.90
40952;DHT22;26682;51.660;19.338;2023-12-14T00:47:32;3.40;99.90
40952;DHT22;26682;51.660;19.338;2023-12-14T00:50:14;3.50;99.90
40952;DHT22;26682;51.660;19.338;2023-12-14T00:52:56;3.40;99.90
40952;DHT22;26682;51.660;19.338;2023-12-14T00:55:39;3.40;99.90
40952;DHT22;26682;51.660;19.338;2023-12-14T00:58:22;3.40;99.90
40952;DHT22;26682;51.660;19.338;2023-12-14T01:01:05;3.40;99.90
40952;DHT22;26682;51.660;19.338;2023-12-14T01:03:47;3.40;99.90
40952;DHT22;26682;51.660;19.338;2023-12-14T01:06:30;3.40;99.90
40952;DHT22;26682;51.660;19.338;2023-12-14T01:09:12;3.40;99.90
40952;DHT22;26682;51.660;19.338;2023-12-14T01:11:55;3.40;99.90
40952;DHT22;26682;51.660;19.338;2023-12-14T01:14:37;3.30;99.90
40952;DHT22;26682;51.660;19.338;2023-12-14T01:17:19;3.30;99.90
40952;DHT22;26682;51.660;19.338;2023-12-14T01:20:04;3.30;99.90
40952;DHT22;26682;51.660;19.338;2023-12-14T01:22:48;3.40;99.90
40952;DHT22;26682;51.660;19.338;2023-12-14T01:25:30;3.30;99.90
40952;DHT22;26682;51.660;19.338;2023-12-14T01:28:13;3.30;99.90
40952;DHT22;26682;51.660;19.338;2023-12-14T01:30:56;3.30;99.90
40952;DHT22;26682;51.660;19.338;2023-12-14T01:33:39;3.30;99.90
40952;DHT22;26682;51.660;19.338;2023-12-14T01:36:26;3.30;99.90
40952;DHT22;26682;51.660;19.338;2023-12-14T01:39:08;3.30;99.90
40952;DHT22;26682;51.660;19.338;2023-12-14T01:41:51;3.20;99.90
40952;DHT22;26682;51.660;19.338;2023-12-14T01:44:33;3.20;99.90
40952;DHT22;26682;51.660;19.338;2023-12-14T01:47:15;3.20;99.90
40952;DHT22;26682;51.660;19.338;2023-12-14T01:49:58;3.20;99.90
40952;DHT22;26682;51.660;19.338;2023-12-14T01:52:40;3.20;99.90
40952;DHT22;26682;51.660;19.338;2023-12-14T01:55:23;3.10;99.90
40952;DHT22;26682;51.660;19.338;2023-12-14T01:58:06;3.20;99.90
40952;DHT22;26682;51.660;19.338;2023-12-14T02:03:50;3.10;99.90
40952;DHT22;26682;51.660;19.338;2023-12-14T02:06:33;3.10;99.90
40952;DHT22;26682;51.660;19.338;2023-12-14T02:09:15;3.10;99.90
40952;DHT22;26682;51.660;19.338;2023-12-14T02:11:58;3.10;99.90
40952;DHT22;26682;51.660;19.338;2023-12-14T02:14:40;3.10;99.90
40952;DHT22;26682;51.660;19.338;2023-12-14T02:17:23;3.10;99.90
40952;DHT22;26682;51.660;19.338;2023-12-14T02:20:06;3.10;99.90
40952;DHT22;26682;51.660;19.338;2023-12-14T02:22:53;3.10;99.90
40952;DHT22;26682;51.660;19.338;2023-12-14T02:25:35;3.10;99.90
40952;DHT22;26682;51.660;19.338;2023-12-14T02:28:18;3.10;99.90
40952;DHT22;26682;51.660;19.338;2023-12-14T02:31:00;3.10;99.90
40952;DHT22;26682;51.660;19.338;2023-12-14T02:33:43;3.00;99.90
40952;DHT22;26682;51.660;19.338;2023-12-14T02:36:25;3.00;99.90
40952;DHT22;26682;51.660;19.338;2023-12-14T02:39:08;3.00;99.90
40952;DHT22;26682;51.660;19.338;2023-12-14T02:41:50;3.00;99.90
40952;DHT22;26682;51.660;19.338;2023-12-14T02:44:32;3.00;99.90
40952;DHT22;26682;51.660;19.338;2023-12-14T02:47:15;3.00;99.90
40952;DHT22;26682;51.660;19.338;2023-12-14T02:49:57;3.00;99.90
40952;DHT22;26682;51.660;19.338;2023-12-14T02:52:39;2.90;99.90
40952;DHT22;26682;51.660;19.338;2023-12-14T02:55:22;2.90;99.90
40952;DHT22;26682;51.660;19.338;2023-12-14T02:58:06;2.90;99.90
40952;DHT22;26682;51.660;19.338;2023-12-14T03:00:48;2.90;99.90
40952;DHT22;26682;51.660;19.338;2023-12-14T03:03:30;2.90;99.90
40952;DHT22;26682;51.660;19.338;2023-12-14T03:06:13;2.90;99.90
40952;DHT22;26682;51.660;19.338;2023-12-14T03:08:55;2.90;99.90
40952;DHT22;26682;51.660;19.338;2023-12-14T03:11:38;2.90;99.90
40952;DHT22;26682;51.660;19.338;2023-12-14T03:14:20;2.90;99.90
40952;DHT22;26682;51.660;19.338;2023-12-14T03:17:03;2.90;99.90
40952;DHT22;26682;51.660;19.338;2023-12-14T03:19:45;2.90;99.90
40952;DHT22;26682;51.660;19.338;2023-12-14T03:22:28;2.90;99.90
40952;DHT22;26682;51.660;19.338;2023-12-14T03:25:10;2.90;99.90
40952;DHT22;26682;51.660;19.338;2023-12-14T03:27:53;2.90;99.90
40952;DHT22;26682;51.660;19.338;2023-12-14T03:30:35;2.90;99.90
40952;DHT22;26682;51.660;19.338;2023-12-14T03:33:18;2.90;99.90
40952;DHT22;26682;51.660;19.338;2023-12-14T03:36:01;2.90;99.90
40952;DHT22;26682;51.660;19.338;2023-12-14T03:38:44;2.90;99.90
40952;DHT22;26682;51.660;19.338;2023-12-14T03:41:26;2.80;99.90
40952;DHT22;26682;51.660;19.338;2023-12-14T03:44:09;2.90;99.90
40952;DHT22;26682;51.660;19.338;2023-12-14T03:46:52;2.80;99.90
40952;DHT22;26682;51.660;19.338;2023-12-14T03:49:39;2.80;99.90
40952;DHT22;26682;51.660;19.338;2023-12-14T03:52:21;2.80;99.90
40952;DHT22;26682;51.660;19.338;2023-12-14T03:55:04;2.80;99.90
40952;DHT22;26682;51.660;19.338;2023-12-14T03:57:47;2.80;99.90
40952;DHT22;26682;51.660;19.338;2023-12-14T04:00:29;2.90;99.90
40952;DHT22;26682;51.660;19.338;2023-12-14T04:03:12;2.80;99.90
40952;DHT22;26682;51.660;19.338;2023-12-14T04:05:54;2.90;99.90
40952;DHT22;26682;51.660;19.338;2023-12-14T04:08:37;2.90;99.90
40952;DHT22;26682;51.660;19.338;2023-12-14T04:11:19;2.90;99.90
40952;DHT22;26682;51.660;19.338;2023-12-14T04:14:01;2.90;99.90
40952;DHT22;26682;51.660;19.338;2023-12-14T04:16:44;2.90;99.90
40952;DHT22;26682;51.660;19.338;2023-12-14T04:19:26;2.80;99.90
40952;DHT22;26682;51.660;19.338;2023-12-14T04:22:09;2.90;99.90
40952;DHT22;26682;51.660;19.338;2023-12-14T04:24:51;2.80;99.90
40952;DHT22;26682;51.660;19.338;2023-12-14T04:27:33;2.90;99.90
40952;DHT22;26682;51.660;19.338;2023-12-14T04:30:16;2.80;99.90
40952;DHT22;26682;51.660;19.338;2023-12-14T04:32:58;2.80;99.90
40952;DHT22;26682;51.660;19.338;2023-12-14T04:35:40;2.80;99.90
40952;DHT22;26682;51.660;19.338;2023-12-14T04:38:23;2.90;99.90
40952;DHT22;26682;51.660;19.338;2023-12-14T04:41:05;2.80;99.90
40952;DHT22;26682;51.660;19.338;2023-12-14T04:43:48;2.80;99.90
40952;DHT22;26682;51.660;19.338;2023-12-14T04:46:30;2.80;99.90
40952;DHT22;26682;51.660;19.338;2023-12-14T04:49:12;2.80;99.90
40952;DHT22;26682;51.660;19.338;2023-12-14T04:51:55;2.80;99.90
40952;DHT22;26682;51.660;19.338;2023-12-14T04:54:37;2.80;99.90
40952;DHT22;26682;51.660;19.338;2023-12-14T04:57:22;2.80;99.90
40952;DHT22;26682;51.660;19.338;2023-12-14T05:00:05;2.90;99.90
40952;DHT22;26682;51.660;19.338;2023-12-14T05:02:48;2.80;99.90
40952;DHT22;26682;51.660;19.338;2023-12-14T05:05:31;2.80;99.90
40952;DHT22;26682;51.660;19.338;2023-12-14T05:08:14;2.80;99.90
40952;DHT22;26682;51.660;19.338;2023-12-14T05:10:57;2.80;99.90
40952;DHT22;26682;51.660;19.338;2023-12-14T05:13:40;2.80;99.90
40952;DHT22;26682;51.660;19.338;2023-12-14T05:16:23;2.80;99.90
40952;DHT22;26682;51.660;19.338;2023-12-14T05:19:09;2.80;99.90
40952;DHT22;26682;51.660;19.338;2023-12-14T05:21:52;2.80;99.90
40952;DHT22;26682;51.660;19.338;2023-12-14T05:24:36;2.70;99.90
40952;DHT22;26682;51.660;19.338;2023-12-14T05:27:19;2.80;99.90
40952;DHT22;26682;51.660;19.338;2023-12-14T05:30:01;2.80;99.90
40952;DHT22;26682;51.660;19.338;2023-12-14T05:32:45;2.80;99.90
40952;DHT22;26682;51.660;19.338;2023-12-14T05:35:28;2.80;99.90
40952;DHT22;26682;51.660;19.338;2023-12-14T05:38:10;2.80;99.90
40952;DHT22;26682;51.660;19.338;2023-12-14T05:40:52;2.70;99.90
40952;DHT22;26682;51.660;19.338;2023-12-14T05:43:35;2.70;99.90
40952;DHT22;26682;51.660;19.338;2023-12-14T05:46:22;2.70;99.90
40952;DHT22;26682;51.660;19.338;2023-12-14T05:49:05;2.70;99.90
40952;DHT22;26682;51.660;19.338;2023-12-14T05:51:47;2.70;99.90
40952;DHT22;26682;51.660;19.338;2023-12-14T05:54:30;2.70;99.90
40952;DHT22;26682;51.660;19.338;2023-12-14T05:57:12;2.70;99.90
40952;DHT22;26682;51.660;19.338;2023-12-14T05:59:55;2.70;99.90
40952;DHT22;26682;51.660;19.338;2023-12-14T06:02:39;2.70;99.90
40952;DHT22;26682;51.660;19.338;2023-12-14T06:05:22;2.70;99.90
40952;DHT22;26682;51.660;19.338;2023-12-14T06:08:05;2.70;99.90
40952;DHT22;26682;51.660;19.338;2023-12-14T06:10:47;2.70;99.90
40952;DHT22;26682;51.660;19.338;2023-12-14T06:13:30;2.70;99.90
40952;DHT22;26682;51.660;19.338;2023-12-14T06:16:13;2.70;99.90
40952;DHT22;26682;51.660;19.338;2023-12-14T06:18:55;2.70;99.90
40952;DHT22;26682;51.660;19.338;2023-12-14T06:21:38;2.70;99.90
40952;DHT22;26682;51.660;19.338;2023-12-14T06:24:20;2.60;99.90
40952;DHT22;26682;51.660;19.338;2023-12-14T06:27:04;2.60;99.90
40952;DHT22;26682;51.660;19.338;2023-12-14T06:29:47;2.60;99.90
40952;DHT22;26682;51.660;19.338;2023-12-14T06:32:31;2.60;99.90
40952;DHT22;26682;51.660;19.338;2023-12-14T06:35:14;2.60;99.90
40952;DHT22;26682;51.660;19.338;2023-12-14T06:37:56;2.60;99.90
40952;DHT22;26682;51.660;19.338;2023-12-14T06:40:39;2.60;99.90
40952;DHT22;26682;51.660;19.338;2023-12-14T06:43:21;2.60;99.90
40952;DHT22;26682;51.660;19.338;2023-12-14T06:46:04;2.60;99.90
40952;DHT22;26682;51.660;19.338;2023-12-14T06:48:47;2.60;99.90
40952;DHT22;26682;51.660;19.338;2023-12-14T06:51:30;2.60;99.90
40952;DHT22;26682;51.660;19.338;2023-12-14T06:54:13;2.60;99.90
40952;DHT22;26682;51.660;19.338;2023-12-14T06:56:55;2.60;99.90
40952;DHT22;26682;51.660;19.338;2023-12-14T06:59:37;2.60;99.90
40952;DHT22;26682;51.660;19.338;2023-12-14T07:02:20;2.60;99.90
40952;DHT22;26682;51.660;19.338;2023-12-14T07:05:03;2.60;99.90
40952;DHT22;26682;51.660;19.338;2023-12-14T07:07:46;2.70;99.90
40952;DHT22;26682;51.660;19.338;2023-12-14T07:10:28;2.60;99.90
40952;DHT22;26682;51.660;19.338;2023-12-14T07:13:11;2.70;99.90
40952;DHT22;26682;51.660;19.338;2023-12-14T07:15:54;2.70;99.90
40952;DHT22;26682;51.660;19.338;2023-12-14T07:18:37;2.70;99.90
40952;DHT22;26682;51.660;19.338;2023-12-14T07:21:20;2.70;99.90
40952;DHT22;26682;51.660;19.338;2023-12-14T07:24:04;2.70;99.90
40952;DHT22;26682;51.660;19.338;2023-12-14T07:26:47;2.60;99.90
40952;DHT22;26682;51.660;19.338;2023-12-14T07:29:29;2.70;99.90
40952;DHT22;26682;51.660;19.338;2023-12-14T07:32:12;2.70;99.90
40952;DHT22;26682;51.660;19.338;2023-12-14T07:34:54;2.70;99.90
40952;DHT22;26682;51.660;19.338;2023-12-14T07:37:37;2.70;99.90
40952;DHT22;26682;51.660;19.338;2023-12-14T07:40:20;2.70;99.90
40952;DHT22;26682;51.660;19.338;2023-12-14T07:43:02;2.70;99.90
40952;DHT22;26682;51.660;19.338;2023-12-14T07:45:45;2.60;99.90
40952;DHT22;26682;51.660;19.338;2023-12-14T07:48:28;2.70;99.90
40952;DHT22;26682;51.660;19.338;2023-12-14T07:51:11;2.60;99.90
40952;DHT22;26682;51.660;19.338;2023-12-14T07:53:53;2.70;99.90
40952;DHT22;26682;51.660;19.338;2023-12-14T07:56:36;2.70;99.90
40952;DHT22;26682;51.660;19.338;2023-12-14T07:59:18;2.70;99.90
40952;DHT22;26682;51.660;19.338;2023-12-14T08:02:01;2.70;99.90
40952;DHT22;26682;51.660;19.338;2023-12-14T08:04:43;2.70;99.90
40952;DHT22;26682;51.660;19.338;2023-12-14T08:07:26;2.70;99.90
40952;DHT22;26682;51.660;19.338;2023-12-14T08:10:11;2.70;99.90
40952;DHT22;26682;51.660;19.338;2023-12-14T08:12:54;2.70;99.90
40952;DHT22;26682;51.660;19.338;2023-12-14T08:15:38;2.80;99.90
40952;DHT22;26682;51.660;19.338;2023-12-14T08:18:20;2.80;99.90
40952;DHT22;26682;51.660;19.338;2023-12-14T08:21:03;2.80;99.90
40952;DHT22;26682;51.660;19.338;2023-12-14T08:23:45;2.90;99.90
40952;DHT22;26682;51.660;19.338;2023-12-14T08:26:28;2.80;99.90
40952;DHT22;26682;51.660;19.338;2023-12-14T08:29:11;2.90;99.90
40952;DHT22;26682;51.660;19.338;2023-12-14T08:31:53;2.80;99.90
40952;DHT22;26682;51.660;19.338;2023-12-14T08:34:40;2.80;99.90
40952;DHT22;26682;51.660;19.338;2023-12-14T08:37:23;2.90;99.90
40952;DHT22;26682;51.660;19.338;2023-12-14T08:40:06;2.80;99.90
40952;DHT22;26682;51.660;19.338;2023-12-14T08:42:49;2.90;99.90
40952;DHT22;26682;51.660;19.338;2023-12-14T08:45:32;2.90;99.90
40952;DHT22;26682;51.660;19.338;2023-12-14T08:48:14;2.90;99.90
40952;DHT22;26682;51.660;19.338;2023-12-14T08:50:57;2.80;99.90
40952;DHT22;26682;51.660;19.338;2023-12-14T08:53:40;2.80;99.90
40952;DHT22;26682;51.660;19.338;2023-12-14T08:56:22;2.80;99.90
40952;DHT22;26682;51.660;19.338;2023-12-14T08:59:05;2.80;99.90
40952;DHT22;26682;51.660;19.338;2023-12-14T09:01:47;2.80;99.90
40952;DHT22;26682;51.660;19.338;2023-12-14T09:04:30;2.70;99.90
40952;DHT22;26682;51.660;19.338;2023-12-14T09:07:13;2.80;99.90
40952;DHT22;26682;51.660;19.338;2023-12-14T09:09:55;2.80;99.90
40952;DHT22;26682;51.660;19.338;2023-12-14T09:12:38;2.70;99.90
40952;DHT22;26682;51.660;19.338;2023-12-14T09:15:20;2.70;99.90
40952;DHT22;26682;51.660;19.338;2023-12-14T09:18:03;2.70;99.90
40952;DHT22;26682;51.660;19.338;2023-12-14T09:20:46;2.70;99.90
40952;DHT22;26682;51.660;19.338;2023-12-14T09:23:29;2.70;99.90
40952;DHT22;26682;51.660;19.338;2023-12-14T09:26:11;2.70;99.90
40952;DHT22;26682;51.660;19.338;2023-12-14T09:28:54;2.70;99.90
40952;DHT22;26682;51.660;19.338;2023-12-14T09:31:36;2.70;99.90
40952;DHT22;26682;51.660;19.338;2023-12-14T09:34:19;2.70;99.90
40952;DHT22;26682;51.660;19.338;2023-12-14T09:37:02;2.60;99.90
40952;DHT22;26682;51.660;19.338;2023-12-14T09:39:44;2.70;99.90
40952;DHT22;26682;51.660;19.338;2023-12-14T09:42:28;2.70;99.90
40952;DHT22;26682;51.660;19.338;2023-12-14T09:45:11;2.70;99.90
40952;DHT22;26682;51.660;19.338;2023-12-14T09:47:53;2.70;99.90
40952;DHT22;26682;51.660;19.338;2023-12-14T09:50:38;2.70;99.90
40952;DHT22;26682;51.660;19.338;2023-12-14T09:53:21;2.70;99.90
40952;DHT22;26682;51.660;19.338;2023-12-14T09:56:04;2.70;99.90
40952;DHT22;26682;51.660;19.338;2023-12-14T09:58:46;2.70;99.90
40952;DHT22;26682;51.660;19.338;2023-12-14T10:01:29;2.70;99.90
40952;DHT22;26682;51.660;19.338;2023-12-14T10:04:14;2.70;99.90
40952;DHT22;26682;51.660;19.338;2023-12-14T10:06:56;2.70;99.90
40952;DHT22;26682;51.660;19.338;2023-12-14T10:09:39;2.60;99.90
40952;DHT22;26682;51.660;19.338;2023-12-14T10:12:21;2.70;99.90
40952;DHT22;26682;51.660;19.338;2023-12-14T10:15:05;2.70;99.90
40952;DHT22;26682;51.660;19.338;2023-12-14T10:17:51;2.70;99.90
40952;DHT22;26682;51.660;19.338;2023-12-14T10:20:37;2.70;99.90
40952;DHT22;26682;51.660;19.338;2023-12-14T10:23:20;2.70;99.90
40952;DHT22;26682;51.660;19.338;2023-12-14T10:26:04;2.80;99.90
40952;DHT22;26682;51.660;19.338;2023-12-14T10:28:47;2.70;99.90
40952;DHT22;26682;51.660;19.338;2023-12-14T10:31:30;2.70;99.90
40952;DHT22;26682;51.660;19.338;2023-12-14T10:34:13;2.70;99.90
40952;DHT22;26682;51.660;19.338;2023-12-14T10:36:56;2.60;99.90
40952;DHT22;26682;51.660;19.338;2023-12-14T10:39:42;2.60;99.90
40952;DHT22;26682;51.660;19.338;2023-12-14T10:42:26;2.70;99.90
40952;DHT22;26682;51.660;19.338;2023-12-14T10:45:12;2.70;99.90
40952;DHT22;26682;51.660;19.338;2023-12-14T10:48:01;2.70;99.90
40952;DHT22;26682;51.660;19.338;2023-12-14T10:50:46;2.80;99.90
40952;DHT22;26682;51.660;19.338;2023-12-14T10:53:32;2.80;99.90
40952;DHT22;26682;51.660;19.338;2023-12-14T10:56:16;2.80;99.90
40952;DHT22;26682;51.660;19.338;2023-12-14T10:59:01;2.70;99.90
40952;DHT22;26682;51.660;19.338;2023-12-14T11:01:45;2.70;99.90
40952;DHT22;26682;51.660;19.338;2023-12-14T11:05:02;2.70;99.90
40952;DHT22;26682;51.660;19.338;2023-12-14T11:07:55;2.80;99.90
40952;DHT22;26682;51.660;19.338;2023-12-14T11:10:41;2.80;99.90
40952;DHT22;26682;51.660;19.338;2023-12-14T11:13:24;2.70;99.90
40952;DHT22;26682;51.660;19.338;2023-12-14T11:16:08;2.80;99.90
40952;DHT22;26682;51.660;19.338;2023-12-14T11:22:11;2.80;99.90
40952;DHT22;26682;51.660;19.338;2023-12-14T11:24:55;2.80;99.90
40952;DHT22;26682;51.660;19.338;2023-12-14T11:27:43;2.70;99.90
40952;DHT22;26682;51.660;19.338;2023-12-14T11:30:26;2.70;99.90
40952;DHT22;26682;51.660;19.338;2023-12-14T11:33:14;2.70;99.90
40952;DHT22;26682;51.660;19.338;2023-12-14T11:35:57;2.60;99.90
40952;DHT22;26682;51.660;19.338;2023-12-14T11:38:40;2.60;99.90
40952;DHT22;26682;51.660;19.338;2023-12-14T11:41:23;2.50;99.90
40952;DHT22;26682;51.660;19.338;2023-12-14T11:44:07;2.50;99.90
40952;DHT22;26682;51.660;19.338;2023-12-14T11:46:50;2.50;99.90
40952;DHT22;26682;51.660;19.338;2023-12-14T11:49:33;2.50;99.90
40952;DHT22;26682;51.660;19.338;2023-12-14T11:52:17;2.50;99.90
40952;DHT22;26682;51.660;19.338;2023-12-14T11:55:00;2.50;99.90
40952;DHT22;26682;51.660;19.338;2023-12-14T11:57:46;2.50;99.90
40952;DHT22;26682;51.660;19.338;2023-12-14T12:00:29;2.50;99.90
40952;DHT22;26682;51.660;19.338;2023-12-14T12:03:13;2.50;99.90
40952;DHT22;26682;51.660;19.338;2023-12-14T12:05:56;2.50;99.90
40952;DHT22;26682;51.660;19.338;2023-12-14T12:08:42;2.50;99.90
40952;DHT22;26682;51.660;19.338;2023-12-14T12:11:25;2.60;99.90
40952;DHT22;26682;51.660;19.338;2023-12-14T12:14:10;2.60;99.90
40952;DHT22;26682;51.660;19.338;2023-12-14T12:16:53;2.60;99.90
40952;DHT22;26682;51.660;19.338;2023-12-14T12:19:36;2.50;99.90
40952;DHT22;26682;51.660;19.338;2023-12-14T12:22:19;2.50;99.90
40952;DHT22;26682;51.660;19.338;2023-12-14T12:25:02;2.50;99.90
40952;DHT22;26682;51.660;19.338;2023-12-14T12:27:57;2.50;99.90
40952;DHT22;26682;51.660;19.338;2023-12-14T12:30:39;2.50;99.90
40952;DHT22;26682;51.660;19.338;2023-12-14T12:33:23;2.50;99.90
40952;DHT22;26682;51.660;19.338;2023-12-14T12:36:06;2.50;99.90
40952;DHT22;26682;51.660;19.338;2023-12-14T12:38:49;2.40;99.90
40952;DHT22;26682;51.660;19.338;2023-12-14T12:41:32;2.40;99.90
40952;DHT22;26682;51.660;19.338;2023-12-14T12:44:15;2.50;99.90
40952;DHT22;26682;51.660;19.338;2023-12-14T12:46:58;2.50;99.90
40952;DHT22;26682;51.660;19.338;2023-12-14T12:49:52;2.50;99.90
40952;DHT22;26682;51.660;19.338;2023-12-14T12:52:35;2.50;99.90
40952;DHT22;26682;51.660;19.338;2023-12-14T12:55:17;2.50;99.90
40952;DHT22;26682;51.660;19.338;2023-12-14T12:58:00;2.50;99.90
40952;DHT22;26682;51.660;19.338;2023-12-14T13:00:47;2.60;99.90
40952;DHT22;26682;51.660;19.338;2023-12-14T13:03:29;2.50;99.90
40952;DHT22;26682;51.660;19.338;2023-12-14T13:06:12;2.50;99.90
40952;DHT22;26682;51.660;19.338;2023-12-14T13:08:54;2.50;99.90
40952;DHT22;26682;51.660;19.338;2023-12-14T13:11:37;2.50;99.90
40952;DHT22;26682;51.660;19.338;2023-12-14T13:14:19;2.50;99.90
40952;DHT22;26682;51.660;19.338;2023-12-14T13:17:02;2.50;99.90
40952;DHT22;26682;51.660;19.338;2023-12-14T13:19:45;2.50;99.90
40952;DHT22;26682;51.660;19.338;2023-12-14T13:22:27;2.50;99.90
40952;DHT22;26682;51.660;19.338;2023-12-14T13:25:13;2.50;99.90
40952;DHT22;26682;51.660;19.338;2023-12-14T13:27:57;2.50;99.90
40952;DHT22;26682;51.660;19.338;2023-12-14T13:30:39;2.50;99.90
40952;DHT22;26682;51.660;19.338;2023-12-14T13:33:23;2.50;99.90
40952;DHT22;26682;51.660;19.338;2023-12-14T13:36:09;2.60;99.90
40952;DHT22;26682;51.660;19.338;2023-12-14T13:38:52;2.50;99.90
40952;DHT22;26682;51.660;19.338;2023-12-14T13:41:34;2.50;99.90
40952;DHT22;26682;51.660;19.338;2023-12-14T13:44:32;2.50;99.90
40952;DHT22;26682;51.660;19.338;2023-12-14T13:47:16;2.50;99.90
40952;DHT22;26682;51.660;19.338;2023-12-14T13:49:59;2.50;99.90
40952;DHT22;26682;51.660;19.338;2023-12-14T13:52:42;2.60;99.90
40952;DHT22;26682;51.660;19.338;2023-12-14T13:55:25;2.60;99.90
40952;DHT22;26682;51.660;19.338;2023-12-14T13:58:07;2.60;99.90
40952;DHT22;26682;51.660;19.338;2023-12-14T14:00:50;2.60;99.90
40952;DHT22;26682;51.660;19.338;2023-12-14T14:03:36;2.50;99.90
40952;DHT22;26682;51.660;19.338;2023-12-14T14:06:21;2.50;99.90
40952;DHT22;26682;51.660;19.338;2023-12-14T14:09:05;2.50;99.90
40952;DHT22;26682;51.660;19.338;2023-12-14T14:11:48;2.50;99.90
40952;DHT22;26682;51.660;19.338;2023-12-14T14:14:33;2.50;99.90
40952;DHT22;26682;51.660;19.338;2023-12-14T14:17:15;2.50;99.90
40952;DHT22;26682;51.660;19.338;2023-12-14T14:19:58;2.50;99.90
40952;DHT22;26682;51.660;19.338;2023-12-14T14:22:40;2.50;99.90
40952;DHT22;26682;51.660;19.338;2023-12-14T14:25:23;2.50;99.90
40952;DHT22;26682;51.660;19.338;2023-12-14T14:28:05;2.50;99.90
40952;DHT22;26682;51.660;19.338;2023-12-14T14:30:48;2.50;99.90
40952;DHT22;26682;51.660;19.338;2023-12-14T14:33:31;2.50;99.90
40952;DHT22;26682;51.660;19.338;2023-12-14T14:36:13;2.50;99.90
40952;DHT22;26682;51.660;19.338;2023-12-14T14:38:56;2.50;99.90
40952;DHT22;26682;51.660;19.338;2023-12-14T14:41:39;2.50;99.90
40952;DHT22;26682;51.660;19.338;2023-12-14T14:44:22;2.40;99.90
40952;DHT22;26682;51.660;19.338;2023-12-14T14:47:04;2.40;99.90
40952;DHT22;26682;51.660;19.338;2023-12-14T14:49:47;2.40;99.90
40952;DHT22;26682;51.660;19.338;2023-12-14T14:52:33;2.40;99.90
40952;DHT22;26682;51.660;19.338;2023-12-14T14:55:16;2.40;99.90
40952;DHT22;26682;51.660;19.338;2023-12-14T14:57:58;2.40;99.90
40952;DHT22;26682;51.660;19.338;2023-12-14T15:00:40;2.40;99.90
40952;DHT22;26682;51.660;19.338;2023-12-14T15:03:23;2.40;99.90
40952;DHT22;26682;51.660;19.338;2023-12-14T15:06:06;2.30;99.90
40952;DHT22;26682;51.660;19.338;2023-12-14T15:08:50;2.40;99.90
40952;DHT22;26682;51.660;19.338;2023-12-14T15:11:32;2.40;99.90
40952;DHT22;26682;51.660;19.338;2023-12-14T15:14:15;2.40;99.90
40952;DHT22;26682;51.660;19.338;2023-12-14T15:16:58;2.40;99.90
40952;DHT22;26682;51.660;19.338;2023-12-14T15:19:40;2.40;99.90
40952;DHT22;26682;51.660;19.338;2023-12-14T15:22:24;2.40;99.90
40952;DHT22;26682;51.660;19.338;2023-12-14T15:25:07;2.40;99.90
40952;DHT22;26682;51.660;19.338;2023-12-14T15:27:51;2.40;99.90
40952;DHT22;26682;51.660;19.338;2023-12-14T15:30:33;2.40;99.90
40952;DHT22;26682;51.660;19.338;2023-12-14T15:33:17;2.40;99.90
40952;DHT22;26682;51.660;19.338;2023-12-14T15:36:00;2.40;99.90
40952;DHT22;26682;51.660;19.338;2023-12-14T15:38:43;2.40;99.90
40952;DHT22;26682;51.660;19.338;2023-12-14T15:41:29;2.40;99.90
40952;DHT22;26682;51.660;19.338;2023-12-14T15:44:12;2.50;99.90
40952;DHT22;26682;51.660;19.338;2023-12-14T15:46:55;2.40;99.90
40952;DHT22;26682;51.660;19.338;2023-12-14T15:49:38;2.50;99.90
40952;DHT22;26682;51.660;19.338;2023-12-14T15:52:20;2.40;99.90
40952;DHT22;26682;51.660;19.338;2023-12-14T15:55:03;2.50;99.90
40952;DHT22;26682;51.660;19.338;2023-12-14T15:57:49;2.40;99.90
40952;DHT22;26682;51.660;19.338;2023-12-14T16:00:31;2.40;99.90
40952;DHT22;26682;51.660;19.338;2023-12-14T16:03:15;2.40;99.90
40952;DHT22;26682;51.660;19.338;2023-12-14T16:05:57;2.40;99.90
40952;DHT22;26682;51.660;19.338;2023-12-14T16:08:41;2.40;99.90
40952;DHT22;26682;51.660;19.338;2023-12-14T16:11:26;2.40;99.90
40952;DHT22;26682;51.660;19.338;2023-12-14T16:14:08;2.40;99.90
40952;DHT22;26682;51.660;19.338;2023-12-14T16:16:51;2.40;99.90
40952;DHT22;26682;51.660;19.338;2023-12-14T16:19:34;2.40;99.90
40952;DHT22;26682;51.660;19.338;2023-12-14T16:22:16;2.30;99.90
40952;DHT22;26682;51.660;19.338;2023-12-14T16:24:59;2.30;99.90
40952;DHT22;26682;51.660;19.338;2023-12-14T16:27:41;2.30;99.90
40952;DHT22;26682;51.660;19.338;2023-12-14T16:30:24;2.30;99.90
40952;DHT22;26682;51.660;19.338;2023-12-14T16:33:06;2.30;99.90
40952;DHT22;26682;51.660;19.338;2023-12-14T16:35:49;2.30;99.90
40952;DHT22;26682;51.660;19.338;2023-12-14T16:38:33;2.20;99.90
40952;DHT22;26682;51.660;19.338;2023-12-14T16:41:19;2.20;99.90
40952;DHT22;26682;51.660;19.338;2023-12-14T16:44:05;2.20;99.90
40952;DHT22;26682;51.660;19.338;2023-12-14T16:46:47;2.10;99.90
40952;DHT22;26682;51.660;19.338;2023-12-14T16:49:30;2.10;99.90
40952;DHT22;26682;51.660;19.338;2023-12-14T16:52:12;2.10;99.90
40952;DHT22;26682;51.660;19.338;2023-12-14T16:54:57;2.10;99.90
40952;DHT22;26682;51.660;19.338;2023-12-14T16:57:40;2.10;99.90
40952;DHT22;26682;51.660;19.338;2023-12-14T17:00:23;2.10;99.90
40952;DHT22;26682;51.660;19.338;2023-12-14T17:03:05;2.00;99.90
40952;DHT22;26682;51.660;19.338;2023-12-14T17:05:48;2.00;99.90
40952;DHT22;26682;51.660;19.338;2023-12-14T17:08:31;1.90;99.90
40952;DHT22;26682;51.660;19.338;2023-12-14T17:11:14;1.90;99.90
40952;DHT22;26682;51.660;19.338;2023-12-14T17:13:56;1.90;99.90
40952;DHT22;26682;51.660;19.338;2023-12-14T17:16:39;1.90;99.90